EETN Airport Information

Runway Information
Runway 08 Length 10072 ft width 148 ft
Elevation 129 ft Threshold 820 ft Heading 90
Runway 26 Length 10072 ft Width 148 ft
Elevation 131 ft Threshold 0 ft Heading 270
Airport Frequencies
Type APP Name APP Frequency 127.9 MHZ
Type ATIS Name ATIS Frequency 124.875 MHZ
Type TWR Name TWR Frequency 120.6 MHZ
Airport Navaids
Type NDB Name Tallinn Frequency 329 KHZ
Type NDB Name Tallinn Frequency 386 KHZ
Type VOR-DME Name Tallinn Frequency 112200 KHZ
Airport Weather Information & NOTAM
ADDS - METARS form results

(2055 UTC 12 December 2018)
Data provider http://aviationweather.gov/metar/data/
 
METAR text: EETN 122050Z 04010KT 360V060 9999 -SN OVC023 01/M03 Q1029 R08/420295 NOSIG
Conditions at: EETN (TALLINN , EE) observed 2050 UTC 12 December 2018
Temperature: 1.0°C (34°F)
Dewpoint: -3.0°C (27°F) [RH = 75%]
Pressure (altimeter): 30.38 inches Hg (1029.0 mb)
Winds: from the NE (40 degrees) at 12 MPH (10 knots; 5.1 m/s)
Visibility: 6 or more miles (10+ km)
Ceiling: 2300 feet AGL
Clouds: overcast cloud deck at 2300 feet AGL
Weather: -SN  (light snow)

METAR text: EETN 122020Z 04008KT 360V070 9999 -SN OVC022 01/M03 Q1029 R08/420295 NOSIG
Conditions at: EETN (TALLINN , EE) observed 2020 UTC 12 December 2018
Temperature: 1.0°C (34°F)
Dewpoint: -3.0°C (27°F) [RH = 75%]
Pressure (altimeter): 30.38 inches Hg (1029.0 mb)
Winds: from the NE (40 degrees) at 9 MPH (8 knots; 4.1 m/s)
Visibility: 6 or more miles (10+ km)
Ceiling: 2200 feet AGL
Clouds: overcast cloud deck at 2200 feet AGL
Weather: -SN  (light snow)

Forecast for: EETN (TALLINN , EE)
Text: TAF EETN 121700Z 1218/1318 04012KT 9999 OVC015
Forecast period: 1800 UTC 12 December 2018 to 1800 UTC 13 December 2018
Forecast type: FROM: standard forecast or significant change
Winds: from the NE (40 degrees) at 14 MPH (12 knots; 6.2 m/s)
Visibility: 6 or more miles 10+ km)
Ceiling: 1500 feet AGL
Clouds: overcast cloud deck at 1500 feet AGL
Weather: no significant weather forecast for this period
Text: TEMPO 1218/1306 2000 SHSN BKN010 SCT015CB BKN020
Forecast period: 1800 UTC 12 December 2018 to 0600 UTC 13 December 2018
Forecast type: TEMPORARY: The following changes expected for less than half the time period
Visibility: 1.24 miles (2.00 km)
Ceiling: 1000 feet AGL
Clouds: broken clouds at 1000 feet AGL
scattered clouds at 1500 feet AGL
broken clouds at 2000 feet AGL
Weather: SHSN  (snow showers)
Text: TEMPO 1306/1315 2000 SHSNRA BKN006 SCT015 BKN020
Forecast period: 0600 to 1500 UTC 13 December 2018
Forecast type: TEMPORARY: The following changes expected for less than half the time period
Visibility: 1.24 miles (2.00 km)
Ceiling: 600 feet AGL
Clouds: broken clouds at 600 feet AGL
scattered clouds at 1500 feet AGL
broken clouds at 2000 feet AGL
Weather: SHSN SHRA  (snow showers, rain showers)